Time;durP1;ratioP1;P1;durP2;ratioP2;P2;SDS_P1;SDS_P2;PMS_P1;PMS_P2;Temp;Humidity;BMP_temperature;BMP_pressure;BME280_temperature;BME280_humidity;BME280_pressure;Samples;Min_cycle;Max_cycle;Signal;HPM_P1;HPM_P2
2021/10/21 00:02:01;;;;;;;5.20;4.73;;;15.00;99.90;;;;;;5049623;28;20233;-86
2021/10/21 00:04:29;;;;;;;5.80;5.20;;;15.00;99.90;;;;;;5042758;28;20430;-84
2021/10/21 00:06:57;;;;;;;6.10;5.50;;;15.00;99.90;;;;;;5042689;28;20807;-83
2021/10/21 00:09:24;;;;;;;6.40;5.80;;;15.00;99.90;;;;;;5042013;28;20449;-85
2021/10/21 00:11:51;;;;;;;6.57;5.23;;;15.00;99.90;;;;;;5046874;28;20223;-84
2021/10/21 00:14:18;;;;;;;6.53;5.63;;;15.00;99.90;;;;;;5045734;28;20885;-85
2021/10/21 00:16:44;;;;;;;5.32;4.43;;;15.00;99.90;;;;;;5045972;28;20223;-84
2021/10/21 00:19:11;;;;;;;5.57;5.07;;;15.00;99.90;;;;;;5045221;28;20228;-84
2021/10/21 00:21:38;;;;;;;5.68;5.07;;;15.00;99.90;;;;;;5044674;28;20292;-84
2021/10/21 00:24:06;;;;;;;4.70;4.30;;;14.90;99.90;;;;;;5044561;28;20208;-84
2021/10/21 00:26:34;;;;;;;4.50;4.10;;;14.90;99.90;;;;;;5046318;28;20459;-86
2021/10/21 00:29:01;;;;;;;5.30;4.57;;;14.90;99.90;;;;;;5046993;28;20234;-86
2021/10/21 00:31:27;;;;;;;5.33;4.10;;;14.90;99.90;;;;;;5058144;28;20434;-86
2021/10/21 00:33:54;;;;;;;4.60;4.20;;;14.90;99.90;;;;;;5050884;28;20459;-84
2021/10/21 00:36:21;;;;;;;4.60;4.20;;;14.90;99.90;;;;;;5059121;28;20267;-88
2021/10/21 00:38:48;;;;;;;4.72;4.22;;;14.90;99.90;;;;;;5056552;28;20509;-83
2021/10/21 00:41:23;;;;;;;4.78;4.40;;;14.90;99.90;;;;;;5057319;28;20208;-85
2021/10/21 00:43:49;;;;;;;5.93;4.95;;;14.90;99.90;;;;;;5054965;28;20206;-83
2021/10/21 00:46:21;;;;;;;5.45;4.20;;;14.90;99.90;;;;;;5053721;28;20208;-85
2021/10/21 00:48:49;;;;;;;5.15;4.10;;;14.90;99.90;;;;;;5052341;28;20228;-85
2021/10/21 00:51:16;;;;;;;5.22;4.35;;;14.90;99.90;;;;;;5050773;28;20219;-84
2021/10/21 00:53:45;;;;;;;3.95;3.60;;;15.00;99.90;;;;;;5048532;28;20215;-84
2021/10/21 00:56:14;;;;;;;3.78;3.45;;;14.90;99.90;;;;;;5051421;28;20528;-85
2021/10/21 00:58:49;;;;;;;4.38;3.70;;;14.90;99.90;;;;;;5053415;28;20323;-83
2021/10/21 01:01:16;;;;;;;3.67;3.37;;;15.00;99.90;;;;;;5050697;28;20623;-85
2021/10/21 01:03:43;;;;;;;4.27;3.87;;;15.00;99.90;;;;;;5047311;28;20459;-85
2021/10/21 01:06:11;;;;;;;3.60;3.30;;;15.10;99.90;;;;;;5047312;28;20432;-84
2021/10/21 01:08:39;;;;;;;6.85;4.55;;;15.10;99.90;;;;;;5045405;28;20235;-84
2021/10/21 01:11:07;;;;;;;6.80;4.13;;;15.10;99.90;;;;;;5043270;28;20671;-84
2021/10/21 01:13:34;;;;;;;4.30;3.90;;;15.10;99.90;;;;;;5043658;28;20271;-85
2021/10/21 01:16:10;;;;;;;5.63;4.13;;;15.10;99.90;;;;;;5043282;28;20219;-84
2021/10/21 01:18:37;;;;;;;5.90;4.75;;;15.20;99.90;;;;;;5047225;28;20235;-84
2021/10/21 01:21:06;;;;;;;4.83;4.40;;;15.20;99.90;;;;;;5046225;28;20690;-84
2021/10/21 01:23:34;;;;;;;5.20;4.70;;;15.20;99.90;;;;;;5040113;28;20795;-85
2021/10/21 01:26:01;;;;;;;5.87;4.63;;;15.20;99.90;;;;;;5040431;28;21037;-84
2021/10/21 01:28:28;;;;;;;6.10;4.47;;;15.20;99.90;;;;;;5040512;28;21046;-86
2021/10/21 01:30:55;;;;;;;6.97;4.50;;;15.20;99.90;;;;;;5040997;28;20476;-85
2021/10/21 01:33:22;;;;;;;4.95;4.45;;;15.20;99.90;;;;;;5042950;28;20740;-84
2021/10/21 01:35:49;;;;;;;5.30;4.80;;;15.30;99.90;;;;;;5042063;28;20687;-83
2021/10/21 01:38:17;;;;;;;5.10;4.70;;;15.20;99.90;;;;;;5043517;28;20494;-85
2021/10/21 01:40:44;;;;;;;5.00;4.60;;;15.30;99.90;;;;;;5044359;28;20457;-84
2021/10/21 01:43:13;;;;;;;4.73;4.33;;;15.20;99.90;;;;;;5046692;28;20449;-85
2021/10/21 01:45:40;;;;;;;4.67;4.27;;;15.30;99.90;;;;;;5053567;28;20445;-85
2021/10/21 01:48:07;;;;;;;4.68;4.28;;;15.30;99.90;;;;;;5048997;28;20469;-84
2021/10/21 01:50:35;;;;;;;4.70;4.30;;;15.20;99.90;;;;;;5049949;28;20199;-83
2021/10/21 01:53:02;;;;;;;4.00;3.70;;;15.30;99.90;;;;;;5055732;28;20438;-87
2021/10/21 01:55:30;;;;;;;3.67;3.27;;;15.30;99.90;;;;;;5048690;28;20691;-83
2021/10/21 01:57:57;;;;;;;3.93;3.63;;;15.20;99.90;;;;;;5040160;28;20574;-83
2021/10/21 02:00:26;;;;;;;4.03;3.47;;;15.30;99.90;;;;;;5039929;28;20529;-84
2021/10/21 02:02:53;;;;;;;3.17;2.88;;;15.30;99.90;;;;;;5040830;28;20457;-83
2021/10/21 02:05:22;;;;;;;3.70;2.70;;;15.30;99.90;;;;;;5046092;28;20194;-83
2021/10/21 02:07:49;;;;;;;2.05;1.95;;;15.40;99.90;;;;;;5051450;28;20420;-85
2021/10/21 02:10:17;;;;;;;1.90;1.80;;;15.50;99.90;;;;;;5055159;28;20233;-85
2021/10/21 02:12:46;;;;;;;1.90;1.80;;;15.60;99.90;;;;;;5056476;28;20445;-84
2021/10/21 02:15:12;;;;;;;2.27;2.07;;;15.70;99.90;;;;;;5052936;28;20502;-83
2021/10/21 02:17:40;;;;;;;1.73;1.63;;;15.80;99.90;;;;;;5043544;28;20527;-84
2021/10/21 02:20:08;;;;;;;2.03;1.50;;;15.90;99.90;;;;;;5043286;28;20426;-84
2021/10/21 02:22:35;;;;;;;1.70;1.60;;;16.00;98.80;;;;;;5041884;28;20489;-82
2021/10/21 02:25:02;;;;;;;2.37;1.80;;;16.00;97.30;;;;;;5040342;28;20482;-83
2021/10/21 02:27:30;;;;;;;3.70;1.80;;;16.10;97.00;;;;;;5040701;28;20449;-83
2021/10/21 02:29:58;;;;;;;1.63;1.53;;;16.10;97.80;;;;;;5040551;28;20462;-83
2021/10/21 02:32:25;;;;;;;2.10;1.90;;;16.00;98.00;;;;;;5054405;28;20425;-84
2021/10/21 02:34:52;;;;;;;2.30;1.70;;;16.00;99.10;;;;;;5048439;28;20494;-82
2021/10/21 02:37:19;;;;;;;4.30;2.43;;;15.90;99.90;;;;;;5050017;28;20520;-87
2021/10/21 02:39:46;;;;;;;6.00;2.50;;;15.80;99.90;;;;;;5060494;28;20412;-86
2021/10/21 02:42:12;;;;;;;2.33;1.83;;;15.80;99.90;;;;;;5064137;28;20450;-85
2021/10/21 02:44:39;;;;;;;2.23;2.03;;;15.70;99.90;;;;;;5058555;28;20435;-84
2021/10/21 02:47:08;;;;;;;2.50;2.30;;;15.60;99.90;;;;;;5060996;28;20447;-86
2021/10/21 02:49:35;;;;;;;2.60;2.40;;;15.60;99.90;;;;;;5062542;28;20459;-83
2021/10/21 02:52:02;;;;;;;2.40;2.17;;;15.60;99.90;;;;;;5064292;28;20507;-84
2021/10/21 02:54:29;;;;;;;2.03;1.92;;;15.60;99.90;;;;;;5063907;28;20449;-84
2021/10/21 02:56:56;;;;;;;2.10;2.00;;;15.60;99.90;;;;;;5064317;28;20199;-84
2021/10/21 02:59:23;;;;;;;1.70;1.60;;;15.60;99.90;;;;;;5064391;28;20480;-85
2021/10/21 03:01:50;;;;;;;2.03;1.93;;;15.70;97.20;;;;;;5059299;28;20836;-83
2021/10/21 03:04:18;;;;;;;3.50;2.40;;;15.80;95.80;;;;;;5061971;28;20429;-83
2021/10/21 03:06:45;;;;;;;3.30;2.67;;;15.90;96.20;;;;;;5053008;28;20866;-86
2021/10/21 03:09:12;;;;;;;2.57;2.37;;;15.80;97.00;;;;;;5060925;28;20466;-84
2021/10/21 03:11:39;;;;;;;2.40;2.13;;;15.90;97.30;;;;;;5062372;28;20458;-84
2021/10/21 03:14:06;;;;;;;2.20;2.00;;;15.80;97.30;;;;;;5060961;28;20439;-84
2021/10/21 03:16:35;;;;;;;2.10;1.90;;;15.80;96.00;;;;;;5062915;28;20434;-85
2021/10/21 03:19:02;;;;;;;2.20;1.40;;;15.80;92.90;;;;;;5063541;28;20458;-83
2021/10/21 03:21:31;;;;;;;2.67;1.83;;;15.90;85.70;;;;;;5062213;28;20448;-81
2021/10/21 03:23:58;;;;;;;3.73;1.37;;;15.90;82.10;;;;;;5062267;28;20446;-86
2021/10/21 03:26:26;;;;;;;2.10;1.30;;;15.80;77.20;;;;;;5060332;28;20563;-81
2021/10/21 03:28:53;;;;;;;1.60;1.10;;;15.80;74.10;;;;;;5060363;28;20463;-85
2021/10/21 03:31:20;;;;;;;2.70;0.90;;;15.70;68.60;;;;;;5062247;28;20473;-83
2021/10/21 03:33:48;;;;;;;10.47;1.00;;;15.70;63.90;;;;;;5052874;28;20479;-83
2021/10/21 03:36:16;;;;;;;1.80;0.87;;;15.80;60.30;;;;;;5054306;28;20436;-82
2021/10/21 03:38:44;;;;;;;2.00;0.80;;;15.70;58.30;;;;;;5056412;28;20502;-88
2021/10/21 03:41:11;;;;;;;3.33;0.70;;;15.60;58.00;;;;;;5059921;28;20462;-84
2021/10/21 03:43:38;;;;;;;1.17;0.63;;;15.60;54.80;;;;;;5059155;28;20478;-83
2021/10/21 03:46:05;;;;;;;2.43;0.90;;;15.60;54.50;;;;;;5053167;28;20434;-82
2021/10/21 03:48:32;;;;;;;4.30;0.83;;;15.60;54.40;;;;;;5059629;28;20455;-85
2021/10/21 06:50:24;;;;;;;3.33;0.98;;;14.80;43.20;;;;;;4971191;28;21103;-75
2021/10/21 06:52:51;;;;;;;4.22;1.00;;;14.80;44.50;;;;;;4955020;28;20252;-77
2021/10/21 06:55:18;;;;;;;8.00;1.30;;;14.80;43.90;;;;;;4964806;28;20645;-76
2021/10/21 06:57:47;;;;;;;9.55;0.90;;;14.80;44.00;;;;;;4974171;28;20217;-78
2021/10/21 07:00:15;;;;;;;3.47;0.98;;;14.80;44.00;;;;;;4973989;28;20243;-77
2021/10/21 07:02:42;;;;;;;5.40;1.10;;;14.70;43.90;;;;;;4974379;28;20611;-77
2021/10/21 07:05:09;;;;;;;6.28;1.27;;;14.70;43.90;;;;;;4976516;28;20296;-77
2021/10/21 07:07:37;;;;;;;7.63;1.00;;;14.70;43.90;;;;;;4979115;28;20280;-78
2021/10/21 07:10:06;;;;;;;1.80;0.90;;;14.60;43.80;;;;;;4980177;28;20261;-77
2021/10/21 07:12:33;;;;;;;2.92;0.70;;;14.50;43.70;;;;;;4975212;28;20209;-76
2021/10/21 07:15:00;;;;;;;3.70;0.73;;;14.50;43.70;;;;;;4974786;28;20676;-77
2021/10/21 07:17:27;;;;;;;4.72;0.80;;;14.50;43.70;;;;;;4973633;28;20217;-77
2021/10/21 07:19:54;;;;;;;5.97;0.80;;;14.50;43.70;;;;;;4973367;28;20586;-77
2021/10/21 07:22:21;;;;;;;2.70;0.93;;;14.50;43.70;;;;;;4974352;28;20216;-77
2021/10/21 07:24:50;;;;;;;1.50;0.50;;;14.50;44.40;;;;;;4973711;28;20657;-76
2021/10/21 07:27:17;;;;;;;5.97;0.60;;;14.50;43.70;;;;;;4977055;28;20209;-76
2021/10/21 07:29:44;;;;;;;2.15;0.77;;;14.50;43.70;;;;;;4976814;28;20257;-76
2021/10/21 07:32:11;;;;;;;2.78;0.80;;;14.50;43.70;;;;;;4977453;28;20209;-76
2021/10/21 07:34:40;;;;;;;2.50;0.52;;;14.50;43.70;;;;;;4976913;28;20680;-76
2021/10/21 07:37:07;;;;;;;3.05;0.80;;;14.50;43.70;;;;;;4977804;28;20228;-76
2021/10/21 07:39:34;;;;;;;0.82;0.60;;;14.60;43.80;;;;;;4978195;28;20564;-76
2021/10/21 07:42:03;;;;;;;2.95;0.65;;;14.50;43.70;;;;;;4978307;28;20240;-75
2021/10/21 07:44:32;;;;;;;3.33;1.00;;;14.50;43.70;;;;;;4981522;28;20565;-74
2021/10/21 07:47:00;;;;;;;2.28;0.50;;;14.40;43.60;;;;;;4978729;28;20230;-75
2021/10/21 07:49:27;;;;;;;1.20;0.50;;;14.30;43.50;;;;;;4991013;28;20268;-76
2021/10/21 07:51:54;;;;;;;3.42;1.27;;;14.30;44.10;;;;;;4988693;28;20720;-75
2021/10/21 07:54:24;;;;;;;2.10;0.88;;;14.20;45.30;;;;;;4981161;28;20227;-76
2021/10/21 07:56:50;;;;;;;5.55;0.70;;;14.10;45.20;;;;;;4982905;28;20208;-76
2021/10/21 07:59:19;;;;;;;3.60;0.60;;;14.10;45.40;;;;;;4987133;28;20260;-76
2021/10/21 08:01:45;;;;;;;3.67;0.45;;;14.10;45.60;;;;;;4987142;28;20700;-76
2021/10/21 08:04:14;;;;;;;2.35;0.43;;;14.00;45.90;;;;;;5007161;28;20200;-76
2021/10/21 08:06:41;;;;;;;2.08;0.60;;;14.00;46.80;;;;;;5007414;28;20196;-76
2021/10/21 08:09:08;;;;;;;5.80;0.60;;;14.00;47.00;;;;;;5005575;28;20296;-76
2021/10/21 08:11:35;;;;;;;6.50;0.80;;;13.90;47.30;;;;;;5003486;28;20246;-77
2021/10/21 08:14:02;;;;;;;2.88;0.65;;;13.80;47.90;;;;;;4992898;28;20225;-77
2021/10/21 08:16:30;;;;;;;2.67;0.70;;;13.70;49.00;;;;;;5004355;28;20232;-76
2021/10/21 08:18:58;;;;;;;3.53;0.60;;;13.70;49.20;;;;;;5000892;28;20326;-76
2021/10/21 08:21:25;;;;;;;5.45;0.70;;;13.60;49.60;;;;;;4994130;28;20878;-77
2021/10/21 08:23:55;;;;;;;2.92;0.82;;;13.60;49.80;;;;;;5008211;28;20203;-77
2021/10/21 08:26:23;;;;;;;4.38;0.52;;;13.50;49.70;;;;;;5015899;28;20216;-76
2021/10/21 08:28:50;;;;;;;2.00;0.73;;;13.50;49.80;;;;;;4995726;28;20692;-76
2021/10/21 08:31:18;;;;;;;1.58;0.47;;;13.50;49.70;;;;;;4996242;28;20220;-75
2021/10/21 08:33:46;;;;;;;1.52;0.50;;;13.50;50.30;;;;;;4996398;28;20223;-76
2021/10/21 08:36:15;;;;;;;2.00;0.70;;;13.40;50.70;;;;;;4996013;28;20212;-76
2021/10/21 08:38:42;;;;;;;4.05;0.60;;;13.40;50.80;;;;;;4994724;28;20238;-76
2021/10/21 08:41:11;;;;;;;2.53;0.60;;;13.40;51.10;;;;;;4995968;28;20287;-76
2021/10/21 08:43:38;;;;;;;0.90;0.40;;;13.40;51.00;;;;;;4995752;28;20358;-77
2021/10/21 08:46:05;;;;;;;0.65;0.30;;;13.40;51.50;;;;;;4995877;28;20287;-77
2021/10/21 08:48:32;;;;;;;1.50;0.30;;;13.30;51.20;;;;;;4995333;28;20236;-77
2021/10/21 08:51:02;;;;;;;4.45;0.50;;;13.30;52.20;;;;;;4995287;28;20208;-77
2021/10/21 08:53:30;;;;;;;1.80;0.63;;;13.30;50.80;;;;;;4995838;28;20727;-76
2021/10/21 08:55:56;;;;;;;0.93;0.60;;;13.30;50.50;;;;;;4996235;28;20284;-77
2021/10/21 08:58:25;;;;;;;0.90;0.50;;;13.40;49.90;;;;;;4997526;28;20256;-77
2021/10/21 09:00:58;;;;;;;3.05;0.82;;;13.40;49.70;;;;;;4999809;28;20204;-74
2021/10/21 09:03:42;;;;;;;3.88;1.00;;;13.40;49.70;;;;;;4979156;28;20201;-76
2021/10/21 09:06:25;;;;;;;7.03;0.70;;;13.40;49.90;;;;;;4993255;28;20212;-75
2021/10/21 09:08:52;;;;;;;0.85;0.80;;;13.40;49.70;;;;;;4999007;28;20227;-76
2021/10/21 09:11:23;;;;;;;2.95;1.10;;;13.40;49.70;;;;;;4999411;28;20207;-75
2021/10/21 09:14:13;;;;;;;1.40;0.90;;;13.50;49.20;;;;;;4986087;28;20190;-75
2021/10/21 09:16:41;;;;;;;1.55;0.55;;;13.50;48.80;;;;;;5003821;28;20201;-76
2021/10/21 09:19:09;;;;;;;0.30;0.30;;;13.60;48.50;;;;;;5006012;28;20224;-77
2021/10/21 09:21:39;;;;;;;2.25;0.50;;;13.60;48.70;;;;;;5007801;28;20201;-78
2021/10/21 09:24:27;;;;;;;1.42;0.93;;;13.60;48.50;;;;;;5007748;28;20267;-78
2021/10/21 09:27:04;;;;;;;0.60;0.57;;;13.60;49.10;;;;;;5005569;28;20211;-77
2021/10/21 09:29:31;;;;;;;1.20;0.50;;;13.40;48.50;;;;;;5001188;28;20258;-76
2021/10/21 09:32:06;;;;;;;2.10;0.80;;;13.30;49.90;;;;;;5001910;28;20248;-78
2021/10/21 09:34:42;;;;;;;3.35;0.90;;;13.30;50.40;;;;;;4996165;28;20246;-77
2021/10/21 09:37:13;;;;;;;4.88;0.55;;;13.30;50.00;;;;;;4995710;28;20216;-76
2021/10/21 09:39:42;;;;;;;1.77;0.65;;;13.30;50.60;;;;;;4995433;28;20224;-76
2021/10/21 09:42:10;;;;;;;2.85;0.65;;;13.20;50.80;;;;;;4980052;28;20208;-77
2021/10/21 09:44:37;;;;;;;1.75;0.80;;;13.30;50.80;;;;;;4995480;28;20227;-77
2021/10/21 09:47:15;;;;;;;1.65;0.65;;;13.40;50.80;;;;;;4993648;28;20299;-77
2021/10/21 09:49:44;;;;;;;3.10;1.02;;;13.40;50.40;;;;;;4979594;28;20274;-77
2021/10/21 09:52:17;;;;;;;2.25;0.80;;;13.40;50.80;;;;;;5007801;28;20224;-77
2021/10/21 09:54:45;;;;;;;1.30;0.73;;;13.40;50.70;;;;;;5014108;28;21468;-76
2021/10/21 09:57:17;;;;;;;0.70;0.60;;;13.50;50.40;;;;;;5009587;28;20622;-77
2021/10/21 09:59:45;;;;;;;4.10;1.05;;;13.60;49.60;;;;;;5000109;28;20292;-77
2021/10/21 10:02:15;;;;;;;3.47;0.80;;;13.70;49.50;;;;;;4997795;28;20224;-76
2021/10/21 10:04:45;;;;;;;1.40;0.73;;;13.80;49.60;;;;;;5008273;28;20271;-77
2021/10/21 10:07:13;;;;;;;1.40;0.73;;;13.90;48.10;;;;;;4995639;28;20212;-77
2021/10/21 10:09:41;;;;;;;1.90;0.70;;;13.80;47.90;;;;;;4995021;28;20230;-77
2021/10/21 10:12:09;;;;;;;2.42;0.85;;;13.90;48.00;;;;;;4993897;28;20216;-74
2021/10/21 10:14:40;;;;;;;4.03;0.55;;;13.90;47.50;;;;;;4994081;28;20204;-76
2021/10/21 10:17:07;;;;;;;2.85;1.38;;;14.00;46.90;;;;;;4993460;28;20208;-76
2021/10/21 10:19:35;;;;;;;2.58;0.90;;;14.10;46.90;;;;;;4993958;28;20287;-74
2021/10/21 10:22:06;;;;;;;3.00;1.00;;;14.20;46.60;;;;;;4993767;28;20259;-74
2021/10/21 10:24:34;;;;;;;1.25;0.70;;;14.20;46.50;;;;;;4994212;28;20209;-76
2021/10/21 10:27:17;;;;;;;4.32;1.25;;;14.30;45.80;;;;;;4994053;28;20295;-75
2021/10/21 10:29:47;;;;;;;0.70;0.68;;;14.30;45.70;;;;;;4974794;28;20225;-76
2021/10/21 10:32:31;;;;;;;3.25;1.08;;;14.30;46.00;;;;;;4977203;28;20197;-74
2021/10/21 10:35:00;;;;;;;1.38;0.70;;;14.50;45.50;;;;;;4995550;28;20232;-74
2021/10/21 10:37:55;;;;;;;1.98;0.77;;;14.60;45.30;;;;;;4995723;28;20200;-75
2021/10/21 10:40:47;;;;;;;2.85;1.00;;;14.50;44.90;;;;;;4949254;28;20252;-75
2021/10/21 10:43:17;;;;;;;1.80;0.90;;;14.70;44.70;;;;;;4995545;28;20316;-75
2021/10/21 10:45:47;;;;;;;4.85;1.25;;;14.80;44.50;;;;;;4993900;28;20648;-73
2021/10/21 10:48:16;;;;;;;1.30;0.77;;;14.90;44.10;;;;;;4994135;28;20240;-73
2021/10/21 10:50:56;;;;;;;3.30;0.80;;;15.20;44.40;;;;;;4994836;28;20463;-74
2021/10/21 10:53:51;;;;;;;2.53;0.77;;;15.20;42.10;;;;;;4995067;28;20487;-75
2021/10/21 10:56:41;;;;;;;4.88;1.30;;;14.90;42.40;;;;;;4995417;28;20212;-73
2021/10/21 10:59:28;;;;;;;3.40;1.20;;;14.60;43.30;;;;;;4995456;28;20734;-75
2021/10/21 11:01:55;;;;;;;5.65;1.00;;;14.60;43.40;;;;;;5001537;28;20193;-74
2021/10/21 11:04:59;;;;;;;3.70;1.13;;;14.50;43.70;;;;;;5005390;28;20204;-74
2021/10/21 11:07:28;;;;;;;2.38;0.90;;;14.50;43.50;;;;;;4951151;29;20209;-73
2021/10/21 11:10:15;;;;;;;3.67;1.20;;;14.50;42.90;;;;;;5003618;28;20236;-76
2021/10/21 11:12:42;;;;;;;1.38;0.98;;;14.50;43.50;;;;;;5016914;28;20204;-74
2021/10/21 11:15:42;;;;;;;1.65;0.95;;;14.70;41.60;;;;;;5015270;28;20234;-74
2021/10/21 11:18:10;;;;;;;3.47;1.08;;;14.80;40.40;;;;;;5010134;28;20619;-73
2021/10/21 11:20:41;;;;;;;2.22;1.00;;;14.80;39.50;;;;;;5007252;28;20316;-77
2021/10/21 11:23:29;;;;;;;3.92;0.77;;;15.00;39.60;;;;;;5009031;28;20209;-75
2021/10/21 11:26:01;;;;;;;2.85;1.25;;;15.00;39.20;;;;;;5000103;28;20207;-75
2021/10/21 11:28:29;;;;;;;2.80;1.30;;;15.00;39.40;;;;;;5002090;28;20226;-75
2021/10/21 11:30:56;;;;;;;1.40;0.70;;;15.10;39.50;;;;;;5017919;28;20193;-75
2021/10/21 11:33:26;;;;;;;3.25;1.00;;;15.10;39.50;;;;;;5017591;28;20456;-75
2021/10/21 11:35:54;;;;;;;1.85;0.90;;;15.20;39.60;;;;;;5010188;28;20214;-75
2021/10/21 11:38:21;;;;;;;2.37;0.80;;;15.20;39.20;;;;;;4999906;28;20323;-76
2021/10/21 11:40:50;;;;;;;2.65;0.98;;;15.40;38.90;;;;;;4997727;28;20503;-74
2021/10/21 11:43:22;;;;;;;2.77;1.07;;;15.50;38.90;;;;;;4998545;28;20209;-75
2021/10/21 11:45:52;;;;;;;4.90;0.87;;;15.70;37.70;;;;;;4997995;28;20441;-75
2021/10/21 11:48:20;;;;;;;3.27;1.00;;;15.90;35.80;;;;;;4998104;28;21002;-76
2021/10/21 11:50:50;;;;;;;4.53;1.27;;;15.70;34.80;;;;;;4997764;28;20548;-76
2021/10/21 11:53:19;;;;;;;2.63;1.00;;;15.90;35.00;;;;;;4997831;28;20462;-76
2021/10/21 11:55:48;;;;;;;1.37;0.90;;;16.30;33.80;;;;;;4998934;28;20461;-73
2021/10/21 11:58:34;;;;;;;3.90;1.00;;;16.30;34.40;;;;;;4998542;28;20916;-74
2021/10/21 12:01:09;;;;;;;5.50;1.03;;;16.30;34.40;;;;;;5001237;28;20976;-76
2021/10/21 12:03:38;;;;;;;2.17;0.70;;;16.20;34.00;;;;;;5000345;28;20465;-74
2021/10/21 12:06:07;;;;;;;4.83;0.97;;;15.90;34.10;;;;;;4996598;28;20453;-74
2021/10/21 12:08:35;;;;;;;3.37;0.93;;;15.80;34.90;;;;;;5000119;28;20520;-75
2021/10/21 12:11:05;;;;;;;2.90;1.10;;;15.60;34.00;;;;;;4997842;28;20426;-74
2021/10/21 12:13:34;;;;;;;1.25;0.77;;;15.70;34.50;;;;;;4999481;28;20460;-73
2021/10/21 12:16:03;;;;;;;3.87;1.10;;;15.60;33.10;;;;;;4999140;28;20309;-75
2021/10/21 12:18:31;;;;;;;7.23;1.43;;;15.60;33.70;;;;;;4998498;28;20480;-74
2021/10/21 12:21:01;;;;;;;1.95;0.90;;;15.60;33.30;;;;;;4998694;28;20495;-73
2021/10/21 12:23:53;;;;;;;2.83;1.13;;;15.60;32.70;;;;;;4998305;28;20210;-74
2021/10/21 12:26:24;;;;;;;4.07;0.87;;;15.60;32.80;;;;;;4996917;28;20217;-73
2021/10/21 12:28:52;;;;;;;3.03;1.00;;;15.60;33.10;;;;;;4996487;28;20456;-73
2021/10/21 12:31:22;;;;;;;3.60;1.20;;;15.80;33.40;;;;;;4996530;28;20893;-74
2021/10/21 12:34:09;;;;;;;2.42;0.70;;;15.90;33.40;;;;;;4996565;28;20519;-75
2021/10/21 12:36:45;;;;;;;5.33;0.97;;;16.00;33.30;;;;;;4998931;28;20684;-76
2021/10/21 12:39:15;;;;;;;1.40;1.00;;;16.10;33.00;;;;;;4997902;28;20469;-76
2021/10/21 12:41:52;;;;;;;3.80;0.90;;;16.20;33.00;;;;;;4996516;28;20474;-74
2021/10/21 12:44:21;;;;;;;1.93;1.00;;;16.30;33.20;;;;;;4998593;28;20446;-74
2021/10/21 12:46:48;;;;;;;3.57;1.10;;;16.50;32.90;;;;;;4998512;28;20465;-73
2021/10/21 12:49:17;;;;;;;2.77;0.97;;;16.60;32.80;;;;;;4982679;28;20578;-76
2021/10/21 12:51:46;;;;;;;4.57;1.20;;;16.40;32.60;;;;;;4984876;28;20447;-73
2021/10/21 12:54:25;;;;;;;4.20;0.93;;;16.40;33.00;;;;;;4995904;28;20541;-73
2021/10/21 12:56:56;;;;;;;3.00;1.03;;;16.60;33.10;;;;;;4996561;28;20464;-73
2021/10/21 12:59:24;;;;;;;4.10;0.90;;;16.80;32.80;;;;;;4995585;28;20544;-73
2021/10/21 13:01:55;;;;;;;2.53;0.83;;;16.80;31.30;;;;;;4987878;28;20527;-75
2021/10/21 13:04:54;;;;;;;3.70;1.13;;;16.70;30.80;;;;;;4995441;28;20519;-76
2021/10/21 13:07:24;;;;;;;1.47;0.80;;;16.70;31.60;;;;;;4939839;29;21313;-75
2021/10/21 13:09:54;;;;;;;6.20;1.10;;;16.40;32.00;;;;;;4990284;28;20484;-76
2021/10/21 13:12:22;;;;;;;3.50;0.93;;;16.30;31.40;;;;;;5001217;28;20829;-75
2021/10/21 13:14:53;;;;;;;0.67;0.67;;;16.30;31.80;;;;;;5000052;28;20438;-75
2021/10/21 13:17:20;;;;;;;2.55;0.80;;;16.20;31.50;;;;;;5002875;28;20462;-75
2021/10/21 13:19:47;;;;;;;1.10;0.60;;;16.50;31.80;;;;;;4999847;28;20235;-74
2021/10/21 13:22:14;;;;;;;2.63;1.50;;;16.70;31.30;;;;;;4995825;28;20460;-75
2021/10/21 13:24:43;;;;;;;2.13;0.90;;;16.80;31.80;;;;;;4994198;28;20434;-73
2021/10/21 13:27:12;;;;;;;1.83;0.50;;;16.80;31.90;;;;;;4995664;28;20470;-74
2021/10/21 13:29:39;;;;;;;1.90;0.93;;;16.50;30.50;;;;;;4994647;28;20908;-74
2021/10/21 13:32:09;;;;;;;2.17;0.67;;;16.20;31.10;;;;;;4996867;28;20461;-77
2021/10/21 13:34:36;;;;;;;3.93;1.10;;;16.10;30.80;;;;;;4997636;28;20463;-75
2021/10/21 13:37:06;;;;;;;2.30;0.90;;;16.00;31.50;;;;;;4995547;28;20488;-74
2021/10/21 13:39:39;;;;;;;3.27;1.13;;;16.10;31.50;;;;;;4996316;28;20538;-75
2021/10/21 13:42:06;;;;;;;0.90;0.60;;;16.10;31.70;;;;;;5003667;28;20541;-74
2021/10/21 13:44:34;;;;;;;4.00;1.10;;;16.20;31.00;;;;;;5008130;28;20455;-74
2021/10/21 13:47:02;;;;;;;4.83;1.07;;;16.20;30.80;;;;;;4999620;28;20465;-75
2021/10/21 13:49:29;;;;;;;3.97;0.87;;;16.20;30.90;;;;;;4995232;28;20540;-73
2021/10/21 13:51:56;;;;;;;4.30;0.93;;;16.10;30.80;;;;;;4995250;28;20424;-75
2021/10/21 13:54:22;;;;;;;3.78;1.15;;;16.10;30.30;;;;;;4995899;28;20457;-75
2021/10/21 13:56:50;;;;;;;3.00;1.27;;;16.00;30.30;;;;;;4994263;28;20682;-73
2021/10/21 13:59:17;;;;;;;1.30;1.10;;;15.90;31.00;;;;;;4994407;28;20998;-74
2021/10/21 14:01:46;;;;;;;2.27;0.90;;;15.90;31.30;;;;;;5006335;28;20486;-76
2021/10/21 14:04:13;;;;;;;5.97;1.93;;;15.90;30.80;;;;;;5002670;28;20548;-75
2021/10/21 14:06:40;;;;;;;5.47;1.20;;;15.90;30.40;;;;;;5006549;28;20460;-75
2021/10/21 14:09:07;;;;;;;4.50;1.30;;;16.00;31.00;;;;;;5008551;28;20550;-73
2021/10/21 14:11:34;;;;;;;2.90;1.07;;;16.10;30.80;;;;;;5003781;28;20462;-74
2021/10/21 14:14:05;;;;;;;1.93;1.10;;;16.10;29.80;;;;;;5008033;28;20467;-76
2021/10/21 14:16:33;;;;;;;2.80;1.63;;;16.30;29.20;;;;;;4998243;28;20920;-76
2021/10/21 14:19:02;;;;;;;5.28;1.30;;;16.20;28.50;;;;;;4976658;28;20485;-76
2021/10/21 14:21:29;;;;;;;2.75;0.98;;;16.20;28.80;;;;;;4976012;28;20239;-75
2021/10/21 14:23:56;;;;;;;1.90;0.73;;;16.20;28.00;;;;;;4994505;28;20211;-74
2021/10/21 14:26:26;;;;;;;2.05;1.20;;;16.30;27.60;;;;;;4994822;28;21036;-75
2021/10/21 14:28:53;;;;;;;2.93;1.20;;;16.20;27.50;;;;;;4996163;28;20225;-75
2021/10/21 14:31:20;;;;;;;3.70;1.10;;;16.00;26.90;;;;;;4996400;28;20827;-74
2021/10/21 14:33:47;;;;;;;1.63;0.75;;;16.00;27.80;;;;;;4995880;28;20458;-74
2021/10/21 14:36:15;;;;;;;2.75;1.42;;;16.00;26.90;;;;;;4994673;28;20236;-75
2021/10/21 14:38:42;;;;;;;2.75;0.85;;;16.00;26.00;;;;;;4993691;28;20347;-74
2021/10/21 14:41:08;;;;;;;4.95;1.23;;;16.00;26.40;;;;;;4994240;28;20227;-74
2021/10/21 14:43:35;;;;;;;4.43;0.97;;;15.90;26.30;;;;;;4993638;28;20623;-76
2021/10/21 14:46:02;;;;;;;3.43;1.30;;;15.90;26.00;;;;;;4994055;28;20478;-74
2021/10/21 14:48:29;;;;;;;2.08;1.13;;;16.00;26.90;;;;;;4993176;28;20567;-76
2021/10/21 14:50:56;;;;;;;2.55;1.13;;;16.00;26.90;;;;;;4993654;28;20206;-74
2021/10/21 14:53:24;;;;;;;6.50;1.00;;;16.00;27.50;;;;;;4994018;28;20238;-74
2021/10/21 14:55:51;;;;;;;3.45;0.90;;;16.00;28.30;;;;;;4993790;28;20441;-72
2021/10/21 14:58:18;;;;;;;5.23;1.30;;;16.10;28.40;;;;;;4993448;28;20241;-74
2021/10/21 15:00:45;;;;;;;4.40;1.03;;;16.10;28.70;;;;;;4994220;28;20492;-74
2021/10/21 15:03:12;;;;;;;3.20;1.07;;;16.00;28.60;;;;;;4994404;28;20459;-74
2021/10/21 15:05:45;;;;;;;3.90;1.23;;;16.00;28.40;;;;;;4995771;28;20494;-74
2021/10/21 15:08:35;;;;;;;2.53;1.20;;;16.00;28.90;;;;;;5005891;28;20462;-74
2021/10/21 15:24:36;;;;;;;4.38;1.20;;;15.60;30.30;;;;;;4993713;28;20207;-74
2021/10/21 15:27:05;;;;;;;4.10;1.60;;;15.60;30.20;;;;;;4992953;28;20277;-74
2021/10/21 15:29:32;;;;;;;3.35;1.27;;;15.50;31.00;;;;;;4992450;28;20746;-74
2021/10/21 15:31:59;;;;;;;2.03;0.90;;;15.40;31.00;;;;;;4992530;28;20319;-74
2021/10/21 15:34:27;;;;;;;3.05;1.25;;;15.30;31.40;;;;;;4992702;28;20205;-74
2021/10/21 15:36:55;;;;;;;4.72;1.02;;;15.30;31.80;;;;;;4992950;28;20207;-74
2021/10/21 15:39:26;;;;;;;3.78;1.02;;;15.20;32.10;;;;;;4993028;28;20244;-75
2021/10/21 15:41:53;;;;;;;2.78;1.10;;;15.20;32.70;;;;;;4993414;28;20281;-76
2021/10/21 15:47:07;;;;;;;5.30;1.70;;;15.10;32.90;;;;;;4959175;28;20205;-75
2021/10/21 15:49:54;;;;;;;2.88;0.80;;;15.00;33.70;;;;;;4997715;28;20237;-75
2021/10/21 16:12:02;;;;;;;4.90;1.52;;;14.70;33.80;;;;;;5004946;28;20207;-74
2021/10/21 16:14:32;;;;;;;7.60;1.67;;;14.70;33.80;;;;;;5007693;28;20208;-76
2021/10/21 16:17:01;;;;;;;4.30;1.50;;;14.70;33.80;;;;;;5019214;28;20208;-74
2021/10/21 16:19:30;;;;;;;5.90;1.52;;;14.60;33.80;;;;;;5018777;28;20224;-75
2021/10/21 16:22:00;;;;;;;6.43;1.95;;;14.60;33.80;;;;;;4997939;28;20303;-76
2021/10/21 16:24:45;;;;;;;3.33;1.30;;;14.60;33.80;;;;;;4997410;28;20676;-75
2021/10/21 16:27:19;;;;;;;2.63;1.17;;;14.60;33.80;;;;;;4978620;28;20312;-73
2021/10/21 16:29:46;;;;;;;3.47;1.38;;;14.60;33.80;;;;;;4979133;28;20233;-75
2021/10/21 16:32:15;;;;;;;2.20;1.15;;;14.50;33.60;;;;;;4995891;28;20326;-75
2021/10/21 16:34:42;;;;;;;2.92;1.45;;;14.50;33.70;;;;;;4996145;28;20221;-74
2021/10/21 16:37:09;;;;;;;5.00;2.08;;;14.50;34.00;;;;;;4996162;28;20208;-75